sensor_id;sensor_type;location;lat;lon;timestamp;P1;durP1;ratioP1;P2;durP2;ratioP2
14316;SDS011;7242;50.858;6.586;2023-05-10T00:02:44;14.40;;;13.10;;
14316;SDS011;7242;50.858;6.586;2023-05-10T00:05:44;14.63;;;13.27;;
14316;SDS011;7242;50.858;6.586;2023-05-10T00:08:45;15.03;;;13.43;;
14316;SDS011;7242;50.858;6.586;2023-05-10T00:11:46;15.60;;;14.10;;
14316;SDS011;7242;50.858;6.586;2023-05-10T00:14:47;14.73;;;13.23;;
14316;SDS011;7242;50.858;6.586;2023-05-10T00:17:48;17.50;;;15.70;;
14316;SDS011;7242;50.858;6.586;2023-05-10T00:20:49;18.37;;;14.70;;
14316;SDS011;7242;50.858;6.586;2023-05-10T00:23:50;16.00;;;14.47;;
14316;SDS011;7242;50.858;6.586;2023-05-10T00:26:50;17.70;;;15.93;;
14316;SDS011;7242;50.858;6.586;2023-05-10T00:29:51;17.83;;;16.07;;
14316;SDS011;7242;50.858;6.586;2023-05-10T00:32:52;17.17;;;15.40;;
14316;SDS011;7242;50.858;6.586;2023-05-10T00:35:53;17.27;;;15.53;;
14316;SDS011;7242;50.858;6.586;2023-05-10T00:38:54;16.50;;;14.93;;
14316;SDS011;7242;50.858;6.586;2023-05-10T00:41:54;17.33;;;15.63;;
14316;SDS011;7242;50.858;6.586;2023-05-10T00:44:56;14.10;;;12.63;;
14316;SDS011;7242;50.858;6.586;2023-05-10T00:47:57;13.03;;;11.73;;
14316;SDS011;7242;50.858;6.586;2023-05-10T00:51:01;12.73;;;11.53;;
14316;SDS011;7242;50.858;6.586;2023-05-10T00:54:02;11.73;;;10.63;;
14316;SDS011;7242;50.858;6.586;2023-05-10T00:57:03;11.97;;;10.87;;
14316;SDS011;7242;50.858;6.586;2023-05-10T01:00:04;9.73;;;8.83;;
14316;SDS011;7242;50.858;6.586;2023-05-10T01:03:05;10.23;;;9.23;;
14316;SDS011;7242;50.858;6.586;2023-05-10T01:06:06;8.30;;;7.50;;
14316;SDS011;7242;50.858;6.586;2023-05-10T01:09:07;8.63;;;7.83;;
14316;SDS011;7242;50.858;6.586;2023-05-10T01:12:08;8.20;;;7.50;;
14316;SDS011;7242;50.858;6.586;2023-05-10T01:15:09;10.67;;;8.93;;
14316;SDS011;7242;50.858;6.586;2023-05-10T01:18:11;9.80;;;8.80;;
14316;SDS011;7242;50.858;6.586;2023-05-10T01:21:21;9.50;;;8.60;;
14316;SDS011;7242;50.858;6.586;2023-05-10T01:28:09;10.87;;;9.73;;
14316;SDS011;7242;50.858;6.586;2023-05-10T01:35:03;9.97;;;8.97;;
14316;SDS011;7242;50.858;6.586;2023-05-10T01:44:35;9.53;;;8.63;;
14316;SDS011;7242;50.858;6.586;2023-05-10T01:47:42;9.03;;;8.13;;
14316;SDS011;7242;50.858;6.586;2023-05-10T01:50:45;9.57;;;8.67;;
14316;SDS011;7242;50.858;6.586;2023-05-10T01:53:47;12.00;;;9.00;;
14316;SDS011;7242;50.858;6.586;2023-05-10T01:56:52;9.77;;;8.80;;
14316;SDS011;7242;50.858;6.586;2023-05-10T01:59:59;10.50;;;8.80;;
14316;SDS011;7242;50.858;6.586;2023-05-10T02:03:14;11.10;;;9.90;;
14316;SDS011;7242;50.858;6.586;2023-05-10T02:06:16;11.37;;;9.80;;
14316;SDS011;7242;50.858;6.586;2023-05-10T02:09:20;11.73;;;10.13;;
14316;SDS011;7242;50.858;6.586;2023-05-10T02:12:22;12.87;;;10.93;;
14316;SDS011;7242;50.858;6.586;2023-05-10T02:15:24;12.00;;;10.80;;
14316;SDS011;7242;50.858;6.586;2023-05-10T02:18:25;11.57;;;10.17;;
14316;SDS011;7242;50.858;6.586;2023-05-10T02:21:27;12.73;;;10.00;;
14316;SDS011;7242;50.858;6.586;2023-05-10T02:24:29;13.13;;;10.40;;
14316;SDS011;7242;50.858;6.586;2023-05-10T02:27:34;13.63;;;10.80;;
14316;SDS011;7242;50.858;6.586;2023-05-10T02:30:36;13.77;;;11.37;;
14316;SDS011;7242;50.858;6.586;2023-05-10T02:33:40;14.90;;;11.97;;
14316;SDS011;7242;50.858;6.586;2023-05-10T02:36:42;14.93;;;12.67;;
14316;SDS011;7242;50.858;6.586;2023-05-10T02:39:43;16.17;;;13.27;;
14316;SDS011;7242;50.858;6.586;2023-05-10T02:42:46;19.37;;;14.57;;
14316;SDS011;7242;50.858;6.586;2023-05-10T02:45:48;17.53;;;14.37;;
14316;SDS011;7242;50.858;6.586;2023-05-10T02:48:50;17.57;;;14.17;;
14316;SDS011;7242;50.858;6.586;2023-05-10T02:51:51;20.20;;;15.43;;
14316;SDS011;7242;50.858;6.586;2023-05-10T02:54:59;20.10;;;16.10;;
14316;SDS011;7242;50.858;6.586;2023-05-10T02:58:03;19.40;;;15.40;;
14316;SDS011;7242;50.858;6.586;2023-05-10T03:01:05;21.17;;;16.60;;
14316;SDS011;7242;50.858;6.586;2023-05-10T03:04:07;21.77;;;17.23;;
14316;SDS011;7242;50.858;6.586;2023-05-10T03:07:08;20.63;;;17.10;;
14316;SDS011;7242;50.858;6.586;2023-05-10T03:10:09;21.13;;;16.97;;
14316;SDS011;7242;50.858;6.586;2023-05-10T03:13:19;22.40;;;17.33;;
14316;SDS011;7242;50.858;6.586;2023-05-10T03:16:52;20.00;;;16.97;;
14316;SDS011;7242;50.858;6.586;2023-05-10T03:20:16;20.63;;;17.40;;
14316;SDS011;7242;50.858;6.586;2023-05-10T03:23:35;20.80;;;18.17;;
14316;SDS011;7242;50.858;6.586;2023-05-10T03:26:43;21.57;;;18.37;;
14316;SDS011;7242;50.858;6.586;2023-05-10T03:29:50;21.00;;;18.30;;
14316;SDS011;7242;50.858;6.586;2023-05-10T03:32:52;20.53;;;17.17;;
14316;SDS011;7242;50.858;6.586;2023-05-10T03:35:53;20.87;;;17.33;;
14316;SDS011;7242;50.858;6.586;2023-05-10T03:38:54;21.73;;;16.33;;
14316;SDS011;7242;50.858;6.586;2023-05-10T03:41:55;21.80;;;16.97;;
14316;SDS011;7242;50.858;6.586;2023-05-10T03:44:56;19.17;;;15.90;;
14316;SDS011;7242;50.858;6.586;2023-05-10T03:47:58;19.53;;;15.10;;
14316;SDS011;7242;50.858;6.586;2023-05-10T03:50:58;19.27;;;14.80;;
14316;SDS011;7242;50.858;6.586;2023-05-10T03:54:00;21.30;;;15.30;;
14316;SDS011;7242;50.858;6.586;2023-05-10T03:57:00;22.20;;;15.40;;
14316;SDS011;7242;50.858;6.586;2023-05-10T04:00:03;16.97;;;14.30;;
14316;SDS011;7242;50.858;6.586;2023-05-10T04:03:14;18.03;;;14.50;;
14316;SDS011;7242;50.858;6.586;2023-05-10T04:06:15;17.17;;;14.87;;
14316;SDS011;7242;50.858;6.586;2023-05-10T04:09:16;19.07;;;14.27;;
14316;SDS011;7242;50.858;6.586;2023-05-10T04:12:17;17.67;;;14.10;;
14316;SDS011;7242;50.858;6.586;2023-05-10T04:15:18;21.40;;;16.23;;
14316;SDS011;7242;50.858;6.586;2023-05-10T04:18:19;21.93;;;16.13;;
14316;SDS011;7242;50.858;6.586;2023-05-10T04:21:20;19.33;;;16.70;;
14316;SDS011;7242;50.858;6.586;2023-05-10T04:24:20;21.17;;;16.53;;
14316;SDS011;7242;50.858;6.586;2023-05-10T04:27:22;21.93;;;17.10;;
14316;SDS011;7242;50.858;6.586;2023-05-10T04:30:23;18.70;;;15.73;;
14316;SDS011;7242;50.858;6.586;2023-05-10T04:33:23;24.47;;;17.30;;
14316;SDS011;7242;50.858;6.586;2023-05-10T04:36:24;20.20;;;17.00;;
14316;SDS011;7242;50.858;6.586;2023-05-10T04:39:25;22.43;;;17.13;;
14316;SDS011;7242;50.858;6.586;2023-05-10T04:42:26;22.33;;;17.90;;
14316;SDS011;7242;50.858;6.586;2023-05-10T04:45:27;23.93;;;18.30;;
14316;SDS011;7242;50.858;6.586;2023-05-10T04:48:27;22.67;;;18.40;;
14316;SDS011;7242;50.858;6.586;2023-05-10T04:51:28;23.17;;;18.83;;
14316;SDS011;7242;50.858;6.586;2023-05-10T04:54:29;23.43;;;18.23;;
14316;SDS011;7242;50.858;6.586;2023-05-10T04:57:30;25.87;;;19.07;;
14316;SDS011;7242;50.858;6.586;2023-05-10T05:00:32;22.13;;;18.13;;
14316;SDS011;7242;50.858;6.586;2023-05-10T05:03:33;20.07;;;17.97;;
14316;SDS011;7242;50.858;6.586;2023-05-10T05:06:34;22.40;;;17.30;;
14316;SDS011;7242;50.858;6.586;2023-05-10T05:09:35;20.57;;;16.87;;
14316;SDS011;7242;50.858;6.586;2023-05-10T05:12:35;18.73;;;16.17;;
14316;SDS011;7242;50.858;6.586;2023-05-10T05:15:36;21.10;;;16.43;;
14316;SDS011;7242;50.858;6.586;2023-05-10T05:18:38;19.07;;;15.17;;
14316;SDS011;7242;50.858;6.586;2023-05-10T05:21:38;18.40;;;14.17;;
14316;SDS011;7242;50.858;6.586;2023-05-10T05:24:40;17.03;;;13.73;;
14316;SDS011;7242;50.858;6.586;2023-05-10T05:27:40;19.83;;;12.83;;
14316;SDS011;7242;50.858;6.586;2023-05-10T05:30:41;16.03;;;13.27;;
14316;SDS011;7242;50.858;6.586;2023-05-10T05:33:42;15.37;;;12.80;;
14316;SDS011;7242;50.858;6.586;2023-05-10T05:36:43;16.97;;;12.80;;
14316;SDS011;7242;50.858;6.586;2023-05-10T05:39:44;16.77;;;12.30;;
14316;SDS011;7242;50.858;6.586;2023-05-10T05:42:45;16.37;;;12.87;;
14316;SDS011;7242;50.858;6.586;2023-05-10T05:45:46;15.10;;;11.60;;
14316;SDS011;7242;50.858;6.586;2023-05-10T05:48:47;14.33;;;12.07;;
14316;SDS011;7242;50.858;6.586;2023-05-10T05:51:48;16.87;;;11.87;;
14316;SDS011;7242;50.858;6.586;2023-05-10T05:54:50;18.70;;;12.00;;
14316;SDS011;7242;50.858;6.586;2023-05-10T05:57:51;16.50;;;12.07;;
14316;SDS011;7242;50.858;6.586;2023-05-10T06:00:52;18.57;;;12.47;;
14316;SDS011;7242;50.858;6.586;2023-05-10T06:03:53;17.97;;;12.03;;
14316;SDS011;7242;50.858;6.586;2023-05-10T06:06:53;19.20;;;12.50;;
14316;SDS011;7242;50.858;6.586;2023-05-10T06:09:54;16.40;;;12.23;;
14316;SDS011;7242;50.858;6.586;2023-05-10T06:12:55;16.00;;;11.93;;
14316;SDS011;7242;50.858;6.586;2023-05-10T06:15:56;20.43;;;12.70;;
14316;SDS011;7242;50.858;6.586;2023-05-10T06:18:56;17.23;;;12.47;;
14316;SDS011;7242;50.858;6.586;2023-05-10T06:21:58;18.83;;;12.23;;
14316;SDS011;7242;50.858;6.586;2023-05-10T06:24:58;20.60;;;13.53;;
14316;SDS011;7242;50.858;6.586;2023-05-10T06:27:59;23.37;;;14.10;;
14316;SDS011;7242;50.858;6.586;2023-05-10T06:31:00;21.73;;;13.77;;
14316;SDS011;7242;50.858;6.586;2023-05-10T06:34:01;21.83;;;13.87;;
14316;SDS011;7242;50.858;6.586;2023-05-10T06:37:02;19.20;;;12.37;;
14316;SDS011;7242;50.858;6.586;2023-05-10T06:40:03;16.30;;;11.80;;
14316;SDS011;7242;50.858;6.586;2023-05-10T06:43:05;20.97;;;12.60;;
14316;SDS011;7242;50.858;6.586;2023-05-10T06:46:07;16.90;;;11.00;;
14316;SDS011;7242;50.858;6.586;2023-05-10T06:49:08;18.57;;;11.20;;
14316;SDS011;7242;50.858;6.586;2023-05-10T06:52:09;14.10;;;9.77;;
14316;SDS011;7242;50.858;6.586;2023-05-10T06:55:10;15.10;;;10.27;;
14316;SDS011;7242;50.858;6.586;2023-05-10T06:58:11;17.40;;;10.90;;
14316;SDS011;7242;50.858;6.586;2023-05-10T07:01:11;18.83;;;11.17;;
14316;SDS011;7242;50.858;6.586;2023-05-10T07:04:12;14.30;;;10.13;;
14316;SDS011;7242;50.858;6.586;2023-05-10T07:07:14;13.17;;;10.17;;
14316;SDS011;7242;50.858;6.586;2023-05-10T07:10:14;13.33;;;9.73;;
14316;SDS011;7242;50.858;6.586;2023-05-10T07:13:15;14.47;;;10.23;;
14316;SDS011;7242;50.858;6.586;2023-05-10T07:16:16;14.73;;;10.17;;
14316;SDS011;7242;50.858;6.586;2023-05-10T07:19:17;10.43;;;8.80;;
14316;SDS011;7242;50.858;6.586;2023-05-10T07:22:18;12.77;;;9.23;;
14316;SDS011;7242;50.858;6.586;2023-05-10T07:25:19;11.43;;;7.70;;
14316;SDS011;7242;50.858;6.586;2023-05-10T07:28:20;8.23;;;6.23;;
14316;SDS011;7242;50.858;6.586;2023-05-10T07:31:20;8.83;;;5.90;;
14316;SDS011;7242;50.858;6.586;2023-05-10T07:34:22;5.37;;;4.60;;
14316;SDS011;7242;50.858;6.586;2023-05-10T07:37:22;6.17;;;4.87;;
14316;SDS011;7242;50.858;6.586;2023-05-10T07:40:23;7.80;;;5.73;;
14316;SDS011;7242;50.858;6.586;2023-05-10T07:43:24;5.97;;;4.47;;
14316;SDS011;7242;50.858;6.586;2023-05-10T07:46:25;3.43;;;3.13;;
14316;SDS011;7242;50.858;6.586;2023-05-10T07:49:26;3.30;;;2.80;;
14316;SDS011;7242;50.858;6.586;2023-05-10T07:52:27;2.80;;;2.50;;
14316;SDS011;7242;50.858;6.586;2023-05-10T07:55:28;2.13;;;1.93;;
14316;SDS011;7242;50.858;6.586;2023-05-10T07:58:29;2.23;;;2.00;;
14316;SDS011;7242;50.858;6.586;2023-05-10T08:01:31;2.53;;;1.80;;
14316;SDS011;7242;50.858;6.586;2023-05-10T08:04:32;1.73;;;1.63;;
14316;SDS011;7242;50.858;6.586;2023-05-10T08:07:33;1.40;;;1.30;;
14316;SDS011;7242;50.858;6.586;2023-05-10T08:10:34;1.87;;;1.63;;
14316;SDS011;7242;50.858;6.586;2023-05-10T08:13:35;1.70;;;1.60;;
14316;SDS011;7242;50.858;6.586;2023-05-10T08:16:35;2.00;;;1.80;;
14316;SDS011;7242;50.858;6.586;2023-05-10T08:19:36;2.10;;;1.90;;
14316;SDS011;7242;50.858;6.586;2023-05-10T08:22:37;2.60;;;1.93;;
14316;SDS011;7242;50.858;6.586;2023-05-10T08:25:38;2.10;;;1.90;;
14316;SDS011;7242;50.858;6.586;2023-05-10T08:28:39;2.40;;;2.20;;
14316;SDS011;7242;50.858;6.586;2023-05-10T08:31:40;2.50;;;2.30;;
14316;SDS011;7242;50.858;6.586;2023-05-10T08:34:41;3.00;;;2.70;;
14316;SDS011;7242;50.858;6.586;2023-05-10T08:37:41;6.33;;;3.70;;
14316;SDS011;7242;50.858;6.586;2023-05-10T08:40:42;6.23;;;5.30;;
14316;SDS011;7242;50.858;6.586;2023-05-10T08:43:44;7.23;;;6.50;;
14316;SDS011;7242;50.858;6.586;2023-05-10T08:46:46;8.43;;;7.23;;
14316;SDS011;7242;50.858;6.586;2023-05-10T08:49:49;12.67;;;8.83;;
14316;SDS011;7242;50.858;6.586;2023-05-10T08:52:51;15.87;;;11.83;;
14316;SDS011;7242;50.858;6.586;2023-05-10T08:55:55;16.30;;;11.37;;
14316;SDS011;7242;50.858;6.586;2023-05-10T08:58:56;19.27;;;13.30;;
14316;SDS011;7242;50.858;6.586;2023-05-10T09:01:57;15.87;;;12.33;;
14316;SDS011;7242;50.858;6.586;2023-05-10T09:04:59;16.00;;;11.93;;
14316;SDS011;7242;50.858;6.586;2023-05-10T09:08:00;15.67;;;11.10;;
14316;SDS011;7242;50.858;6.586;2023-05-10T09:11:00;16.00;;;11.40;;
14316;SDS011;7242;50.858;6.586;2023-05-10T09:14:01;14.33;;;11.40;;
14316;SDS011;7242;50.858;6.586;2023-05-10T09:17:03;11.07;;;9.10;;
14316;SDS011;7242;50.858;6.586;2023-05-10T09:20:04;10.27;;;8.60;;
14316;SDS011;7242;50.858;6.586;2023-05-10T09:23:06;16.30;;;12.77;;
14316;SDS011;7242;50.858;6.586;2023-05-10T09:26:07;16.03;;;11.27;;
14316;SDS011;7242;50.858;6.586;2023-05-10T09:29:08;16.67;;;12.20;;
14316;SDS011;7242;50.858;6.586;2023-05-10T09:32:08;17.83;;;12.63;;
14316;SDS011;7242;50.858;6.586;2023-05-10T09:35:13;16.07;;;12.67;;
14316;SDS011;7242;50.858;6.586;2023-05-10T09:38:15;18.37;;;13.67;;
14316;SDS011;7242;50.858;6.586;2023-05-10T09:41:19;18.27;;;12.17;;
14316;SDS011;7242;50.858;6.586;2023-05-10T09:44:24;15.77;;;12.03;;
14316;SDS011;7242;50.858;6.586;2023-05-10T09:47:26;16.47;;;11.10;;
14316;SDS011;7242;50.858;6.586;2023-05-10T09:50:27;11.33;;;7.87;;
14316;SDS011;7242;50.858;6.586;2023-05-10T09:53:28;10.37;;;7.23;;
14316;SDS011;7242;50.858;6.586;2023-05-10T09:56:33;8.00;;;6.30;;
14316;SDS011;7242;50.858;6.586;2023-05-10T09:59:35;7.67;;;6.37;;
14316;SDS011;7242;50.858;6.586;2023-05-10T10:02:42;6.90;;;5.53;;
14316;SDS011;7242;50.858;6.586;2023-05-10T10:05:43;5.30;;;4.50;;
14316;SDS011;7242;50.858;6.586;2023-05-10T10:08:44;5.07;;;4.07;;
14316;SDS011;7242;50.858;6.586;2023-05-10T10:11:45;3.90;;;3.50;;
14316;SDS011;7242;50.858;6.586;2023-05-10T10:14:47;3.50;;;3.20;;
14316;SDS011;7242;50.858;6.586;2023-05-10T10:17:49;5.40;;;3.30;;
14316;SDS011;7242;50.858;6.586;2023-05-10T10:20:51;4.43;;;3.73;;
14316;SDS011;7242;50.858;6.586;2023-05-10T10:23:54;5.63;;;4.70;;
14316;SDS011;7242;50.858;6.586;2023-05-10T10:26:55;4.60;;;4.20;;
14316;SDS011;7242;50.858;6.586;2023-05-10T10:30:16;4.13;;;3.73;;
14316;SDS011;7242;50.858;6.586;2023-05-10T10:36:46;4.07;;;3.73;;
14316;SDS011;7242;50.858;6.586;2023-05-10T10:39:50;4.47;;;4.07;;
14316;SDS011;7242;50.858;6.586;2023-05-10T10:42:51;4.73;;;4.23;;
14316;SDS011;7242;50.858;6.586;2023-05-10T10:49:14;4.43;;;3.60;;
14316;SDS011;7242;50.858;6.586;2023-05-10T10:52:27;2.63;;;2.13;;
14316;SDS011;7242;50.858;6.586;2023-05-10T10:55:32;3.53;;;2.50;;
14316;SDS011;7242;50.858;6.586;2023-05-10T10:58:33;2.57;;;2.37;;
14316;SDS011;7242;50.858;6.586;2023-05-10T11:01:34;2.63;;;2.00;;
14316;SDS011;7242;50.858;6.586;2023-05-10T11:04:41;2.20;;;2.00;;
14316;SDS011;7242;50.858;6.586;2023-05-10T11:07:56;1.93;;;1.83;;
14316;SDS011;7242;50.858;6.586;2023-05-10T11:14:05;2.37;;;1.80;;
14316;SDS011;7242;50.858;6.586;2023-05-10T11:17:22;1.97;;;1.80;;
14316;SDS011;7242;50.858;6.586;2023-05-10T11:20:28;1.77;;;1.50;;
14316;SDS011;7242;50.858;6.586;2023-05-10T11:26:40;1.63;;;1.30;;
14316;SDS011;7242;50.858;6.586;2023-05-10T11:29:41;1.77;;;1.40;;
14316;SDS011;7242;50.858;6.586;2023-05-10T11:32:43;1.13;;;1.00;;
14316;SDS011;7242;50.858;6.586;2023-05-10T11:35:44;1.40;;;1.20;;
14316;SDS011;7242;50.858;6.586;2023-05-10T11:38:46;1.07;;;0.97;;
14316;SDS011;7242;50.858;6.586;2023-05-10T11:41:48;1.47;;;1.00;;
14316;SDS011;7242;50.858;6.586;2023-05-10T11:44:49;1.50;;;1.10;;
14316;SDS011;7242;50.858;6.586;2023-05-10T11:47:51;1.63;;;1.10;;
14316;SDS011;7242;50.858;6.586;2023-05-10T11:50:51;1.43;;;0.90;;
14316;SDS011;7242;50.858;6.586;2023-05-10T11:53:56;1.40;;;0.90;;
14316;SDS011;7242;50.858;6.586;2023-05-10T11:56:57;2.10;;;0.80;;
14316;SDS011;7242;50.858;6.586;2023-05-10T11:59:58;1.47;;;0.80;;
14316;SDS011;7242;50.858;6.586;2023-05-10T12:03:00;1.03;;;0.70;;
14316;SDS011;7242;50.858;6.586;2023-05-10T12:06:01;0.60;;;0.60;;
14316;SDS011;7242;50.858;6.586;2023-05-10T12:09:05;0.57;;;0.57;;
14316;SDS011;7242;50.858;6.586;2023-05-10T12:12:07;0.63;;;0.63;;
14316;SDS011;7242;50.858;6.586;2023-05-10T12:15:12;0.90;;;0.70;;
14316;SDS011;7242;50.858;6.586;2023-05-10T12:18:22;0.73;;;0.70;;
14316;SDS011;7242;50.858;6.586;2023-05-10T12:21:25;0.83;;;0.73;;
14316;SDS011;7242;50.858;6.586;2023-05-10T12:24:26;1.60;;;0.90;;
14316;SDS011;7242;50.858;6.586;2023-05-10T12:27:31;1.53;;;0.70;;
14316;SDS011;7242;50.858;6.586;2023-05-10T12:30:33;1.23;;;0.90;;
14316;SDS011;7242;50.858;6.586;2023-05-10T12:33:35;1.20;;;1.10;;
14316;SDS011;7242;50.858;6.586;2023-05-10T12:36:42;1.27;;;1.00;;
14316;SDS011;7242;50.858;6.586;2023-05-10T12:39:43;0.80;;;0.80;;
14316;SDS011;7242;50.858;6.586;2023-05-10T12:42:44;0.77;;;0.77;;
14316;SDS011;7242;50.858;6.586;2023-05-10T12:45:45;1.23;;;0.60;;
14316;SDS011;7242;50.858;6.586;2023-05-10T12:48:48;2.07;;;0.83;;
14316;SDS011;7242;50.858;6.586;2023-05-10T12:51:54;1.00;;;0.90;;
14316;SDS011;7242;50.858;6.586;2023-05-10T12:54:55;0.80;;;0.80;;
14316;SDS011;7242;50.858;6.586;2023-05-10T12:57:56;1.13;;;0.80;;
14316;SDS011;7242;50.858;6.586;2023-05-10T13:00:57;2.10;;;0.70;;
14316;SDS011;7242;50.858;6.586;2023-05-10T13:03:59;0.73;;;0.73;;
14316;SDS011;7242;50.858;6.586;2023-05-10T13:07:01;0.80;;;0.80;;
14316;SDS011;7242;50.858;6.586;2023-05-10T13:10:02;0.80;;;0.70;;
14316;SDS011;7242;50.858;6.586;2023-05-10T13:13:03;1.00;;;0.80;;
14316;SDS011;7242;50.858;6.586;2023-05-10T13:16:05;1.77;;;0.80;;
14316;SDS011;7242;50.858;6.586;2023-05-10T13:19:06;0.97;;;0.93;;
14316;SDS011;7242;50.858;6.586;2023-05-10T13:22:07;1.30;;;1.20;;
14316;SDS011;7242;50.858;6.586;2023-05-10T13:25:08;1.33;;;1.20;;
14316;SDS011;7242;50.858;6.586;2023-05-10T13:28:09;2.30;;;1.30;;
14316;SDS011;7242;50.858;6.586;2023-05-10T13:31:09;1.70;;;1.60;;
14316;SDS011;7242;50.858;6.586;2023-05-10T13:34:10;2.53;;;1.43;;
14316;SDS011;7242;50.858;6.586;2023-05-10T13:37:11;2.03;;;1.83;;
14316;SDS011;7242;50.858;6.586;2023-05-10T13:40:12;1.67;;;1.40;;
14316;SDS011;7242;50.858;6.586;2023-05-10T13:43:13;1.77;;;1.67;;
14316;SDS011;7242;50.858;6.586;2023-05-10T13:46:15;2.00;;;1.60;;
14316;SDS011;7242;50.858;6.586;2023-05-10T13:49:16;3.13;;;1.70;;
14316;SDS011;7242;50.858;6.586;2023-05-10T13:52:17;2.33;;;1.70;;
14316;SDS011;7242;50.858;6.586;2023-05-10T13:55:18;2.93;;;1.70;;
14316;SDS011;7242;50.858;6.586;2023-05-10T13:58:18;1.77;;;1.63;;
14316;SDS011;7242;50.858;6.586;2023-05-10T14:01:19;3.07;;;2.23;;
14316;SDS011;7242;50.858;6.586;2023-05-10T14:04:20;2.67;;;2.00;;
14316;SDS011;7242;50.858;6.586;2023-05-10T14:07:21;2.90;;;1.90;;
14316;SDS011;7242;50.858;6.586;2023-05-10T14:10:22;3.10;;;1.90;;
14316;SDS011;7242;50.858;6.586;2023-05-10T14:13:23;2.00;;;1.40;;
14316;SDS011;7242;50.858;6.586;2023-05-10T14:16:24;1.50;;;1.40;;
14316;SDS011;7242;50.858;6.586;2023-05-10T14:19:26;1.97;;;1.77;;
14316;SDS011;7242;50.858;6.586;2023-05-10T14:22:27;3.13;;;1.97;;
14316;SDS011;7242;50.858;6.586;2023-05-10T14:25:28;2.30;;;1.67;;
14316;SDS011;7242;50.858;6.586;2023-05-10T14:28:29;3.37;;;1.87;;
14316;SDS011;7242;50.858;6.586;2023-05-10T14:31:31;3.50;;;1.90;;
14316;SDS011;7242;50.858;6.586;2023-05-10T14:34:31;3.20;;;1.60;;
14316;SDS011;7242;50.858;6.586;2023-05-10T14:37:32;2.53;;;1.60;;
14316;SDS011;7242;50.858;6.586;2023-05-10T14:40:33;1.90;;;1.60;;
14316;SDS011;7242;50.858;6.586;2023-05-10T14:43:35;2.10;;;1.90;;
14316;SDS011;7242;50.858;6.586;2023-05-10T14:46:36;2.13;;;1.73;;
14316;SDS011;7242;50.858;6.586;2023-05-10T14:49:37;3.03;;;1.67;;
14316;SDS011;7242;50.858;6.586;2023-05-10T14:52:38;3.07;;;1.80;;
14316;SDS011;7242;50.858;6.586;2023-05-10T14:55:39;3.07;;;1.83;;
14316;SDS011;7242;50.858;6.586;2023-05-10T14:58:40;3.40;;;2.63;;
14316;SDS011;7242;50.858;6.586;2023-05-10T15:01:41;4.07;;;2.60;;
14316;SDS011;7242;50.858;6.586;2023-05-10T15:04:43;5.00;;;2.80;;
14316;SDS011;7242;50.858;6.586;2023-05-10T15:07:43;3.90;;;2.70;;
14316;SDS011;7242;50.858;6.586;2023-05-10T15:10:44;2.83;;;2.57;;
14316;SDS011;7242;50.858;6.586;2023-05-10T15:13:45;3.73;;;2.43;;
14316;SDS011;7242;50.858;6.586;2023-05-10T15:16:46;2.93;;;1.97;;
14316;SDS011;7242;50.858;6.586;2023-05-10T15:19:47;2.30;;;2.10;;
14316;SDS011;7242;50.858;6.586;2023-05-10T15:22:49;2.77;;;2.03;;
14316;SDS011;7242;50.858;6.586;2023-05-10T15:25:49;4.20;;;2.90;;
14316;SDS011;7242;50.858;6.586;2023-05-10T15:28:55;3.73;;;3.07;;
14316;SDS011;7242;50.858;6.586;2023-05-10T15:31:56;4.30;;;3.00;;
14316;SDS011;7242;50.858;6.586;2023-05-10T15:34:56;4.60;;;3.17;;
14316;SDS011;7242;50.858;6.586;2023-05-10T15:37:58;3.43;;;3.13;;
14316;SDS011;7242;50.858;6.586;2023-05-10T15:40:58;4.83;;;3.27;;
14316;SDS011;7242;50.858;6.586;2023-05-10T15:43:59;3.93;;;3.10;;
14316;SDS011;7242;50.858;6.586;2023-05-10T15:47:00;3.23;;;3.03;;
14316;SDS011;7242;50.858;6.586;2023-05-10T15:50:02;3.40;;;3.10;;
14316;SDS011;7242;50.858;6.586;2023-05-10T15:53:03;2.90;;;2.60;;
14316;SDS011;7242;50.858;6.586;2023-05-10T15:56:04;3.47;;;2.40;;
14316;SDS011;7242;50.858;6.586;2023-05-10T15:59:05;2.40;;;2.20;;
14316;SDS011;7242;50.858;6.586;2023-05-10T16:02:10;2.23;;;1.90;;
14316;SDS011;7242;50.858;6.586;2023-05-10T16:05:11;2.73;;;2.00;;
14316;SDS011;7242;50.858;6.586;2023-05-10T16:08:12;2.30;;;1.67;;
14316;SDS011;7242;50.858;6.586;2023-05-10T16:11:14;2.10;;;1.50;;
14316;SDS011;7242;50.858;6.586;2023-05-10T16:14:14;1.50;;;1.40;;
14316;SDS011;7242;50.858;6.586;2023-05-10T16:17:16;2.33;;;1.50;;
14316;SDS011;7242;50.858;6.586;2023-05-10T16:20:16;2.30;;;1.70;;
14316;SDS011;7242;50.858;6.586;2023-05-10T16:23:18;1.70;;;1.60;;
14316;SDS011;7242;50.858;6.586;2023-05-10T16:26:18;1.50;;;1.40;;
14316;SDS011;7242;50.858;6.586;2023-05-10T16:29:19;1.83;;;1.53;;
14316;SDS011;7242;50.858;6.586;2023-05-10T16:32:20;2.30;;;1.50;;
14316;SDS011;7242;50.858;6.586;2023-05-10T16:35:21;2.13;;;1.70;;
14316;SDS011;7242;50.858;6.586;2023-05-10T16:38:22;1.90;;;1.37;;
14316;SDS011;7242;50.858;6.586;2023-05-10T16:41:24;1.30;;;1.20;;
14316;SDS011;7242;50.858;6.586;2023-05-10T16:44:25;1.80;;;1.37;;
14316;SDS011;7242;50.858;6.586;2023-05-10T16:47:26;1.57;;;1.20;;
14316;SDS011;7242;50.858;6.586;2023-05-10T16:50:27;2.87;;;1.73;;
14316;SDS011;7242;50.858;6.586;2023-05-10T16:53:27;1.60;;;1.37;;
14316;SDS011;7242;50.858;6.586;2023-05-10T16:56:28;2.87;;;1.30;;
14316;SDS011;7242;50.858;6.586;2023-05-10T16:59:29;1.47;;;1.20;;
14316;SDS011;7242;50.858;6.586;2023-05-10T17:02:30;1.27;;;1.10;;
14316;SDS011;7242;50.858;6.586;2023-05-10T17:05:31;1.50;;;1.20;;
14316;SDS011;7242;50.858;6.586;2023-05-10T17:08:32;1.57;;;1.20;;
14316;SDS011;7242;50.858;6.586;2023-05-10T17:11:32;1.30;;;1.20;;
14316;SDS011;7242;50.858;6.586;2023-05-10T17:14:34;1.40;;;1.30;;
14316;SDS011;7242;50.858;6.586;2023-05-10T17:17:35;1.37;;;1.23;;
14316;SDS011;7242;50.858;6.586;2023-05-10T17:20:36;1.40;;;1.20;;
14316;SDS011;7242;50.858;6.586;2023-05-10T17:23:37;1.30;;;1.20;;
14316;SDS011;7242;50.858;6.586;2023-05-10T17:26:38;0.80;;;0.80;;
14316;SDS011;7242;50.858;6.586;2023-05-10T17:29:38;2.10;;;1.10;;
14316;SDS011;7242;50.858;6.586;2023-05-10T17:32:39;1.17;;;1.03;;
14316;SDS011;7242;50.858;6.586;2023-05-10T17:35:43;1.70;;;1.10;;
14316;SDS011;7242;50.858;6.586;2023-05-10T17:38:44;1.60;;;1.40;;
14316;SDS011;7242;50.858;6.586;2023-05-10T17:41:44;1.87;;;1.23;;
14316;SDS011;7242;50.858;6.586;2023-05-10T17:44:45;2.00;;;1.40;;
14316;SDS011;7242;50.858;6.586;2023-05-10T17:47:46;1.53;;;1.33;;
14316;SDS011;7242;50.858;6.586;2023-05-10T17:50:48;2.97;;;1.53;;
14316;SDS011;7242;50.858;6.586;2023-05-10T17:53:50;2.70;;;1.60;;
14316;SDS011;7242;50.858;6.586;2023-05-10T17:56:51;1.90;;;1.60;;
14316;SDS011;7242;50.858;6.586;2023-05-10T17:59:52;2.97;;;1.70;;
14316;SDS011;7242;50.858;6.586;2023-05-10T18:02:53;3.80;;;1.80;;
14316;SDS011;7242;50.858;6.586;2023-05-10T18:05:54;2.60;;;1.77;;
14316;SDS011;7242;50.858;6.586;2023-05-10T18:08:55;2.57;;;1.70;;
14316;SDS011;7242;50.858;6.586;2023-05-10T18:11:56;1.90;;;1.70;;
14316;SDS011;7242;50.858;6.586;2023-05-10T18:14:57;2.57;;;1.60;;
14316;SDS011;7242;50.858;6.586;2023-05-10T18:18:00;1.87;;;1.60;;
14316;SDS011;7242;50.858;6.586;2023-05-10T18:21:02;2.27;;;1.60;;
14316;SDS011;7242;50.858;6.586;2023-05-10T18:24:03;2.00;;;1.50;;
14316;SDS011;7242;50.858;6.586;2023-05-10T18:27:04;2.57;;;1.73;;
14316;SDS011;7242;50.858;6.586;2023-05-10T18:30:07;2.27;;;1.57;;
14316;SDS011;7242;50.858;6.586;2023-05-10T18:33:09;2.03;;;1.80;;
14316;SDS011;7242;50.858;6.586;2023-05-10T18:36:10;1.90;;;1.70;;
14316;SDS011;7242;50.858;6.586;2023-05-10T18:39:11;2.37;;;1.30;;
14316;SDS011;7242;50.858;6.586;2023-05-10T18:42:12;2.03;;;1.70;;
14316;SDS011;7242;50.858;6.586;2023-05-10T18:45:14;2.33;;;1.60;;
14316;SDS011;7242;50.858;6.586;2023-05-10T18:48:15;3.00;;;1.60;;